Time;durP1;ratioP1;P1;durP2;ratioP2;P2;SDS_P1;SDS_P2;PMS_P1;PMS_P2;Temp;Humidity;BMP_temperature;BMP_pressure;BME280_temperature;BME280_humidity;BME280_pressure;Samples;Min_cycle;Max_cycle;Signal;HPM_P1;HPM_P2
2022/01/13 00:00:13;;;;;;;44.35;12.23;;;5.20;99.90;;;;;;5095925;28;20094;-75
2022/01/13 00:02:38;;;;;;;38.15;12.48;;;5.20;99.90;;;;;;5094556;28;20408;-75
2022/01/13 00:05:05;;;;;;;39.53;13.20;;;5.20;99.90;;;;;;5094318;28;20048;-75
2022/01/13 00:07:31;;;;;;;44.30;13.40;;;5.20;99.90;;;;;;5095529;28;20094;-75
2022/01/13 00:09:57;;;;;;;42.67;13.83;;;5.20;99.90;;;;;;5095250;28;20091;-75
2022/01/13 00:12:27;;;;;;;38.30;13.30;;;5.20;99.90;;;;;;5077786;28;20070;-75
2022/01/13 00:18:03;;;;;;;29.50;12.02;;;5.20;99.90;;;;;;5051803;28;20049;-75
2022/01/13 00:26:07;;;;;;;40.20;14.85;;;5.20;99.90;;;;;;5094920;28;20514;-75
2022/01/13 00:28:33;;;;;;;33.20;15.27;;;5.20;99.90;;;;;;5095255;28;20147;-74
2022/01/13 00:31:04;;;;;;;34.25;14.85;;;5.20;99.90;;;;;;5093838;28;20069;-75
2022/01/13 00:33:29;;;;;;;38.20;15.07;;;5.30;99.90;;;;;;5095042;28;20122;-75
2022/01/13 00:35:58;;;;;;;33.57;13.70;;;5.20;99.90;;;;;;5094694;28;20136;-75
2022/01/13 00:38:25;;;;;;;36.13;14.38;;;5.20;99.90;;;;;;5094977;28;20083;-75
2022/01/13 00:40:51;;;;;;;29.35;13.88;;;5.20;99.90;;;;;;5076932;28;20055;-75
2022/01/13 00:43:17;;;;;;;37.70;15.33;;;5.30;99.90;;;;;;5093626;28;20048;-75
2022/01/13 00:45:43;;;;;;;35.57;13.47;;;5.30;99.90;;;;;;5094793;28;20044;-75
2022/01/13 00:48:09;;;;;;;38.37;15.93;;;5.30;99.90;;;;;;5094328;28;20833;-75
2022/01/13 00:50:35;;;;;;;43.83;15.60;;;5.30;99.90;;;;;;5094755;28;20070;-75
2022/01/13 00:53:01;;;;;;;36.87;14.93;;;5.30;99.90;;;;;;5076189;28;20131;-75
2022/01/13 00:55:43;;;;;;;42.42;15.98;;;5.30;99.90;;;;;;5093574;28;20063;-75
2022/01/13 00:58:09;;;;;;;35.75;13.60;;;5.30;99.90;;;;;;5094275;28;20043;-75
2022/01/13 01:00:35;;;;;;;43.73;15.40;;;5.30;99.90;;;;;;5093719;28;20048;-75
2022/01/13 01:03:00;;;;;;;46.37;15.43;;;5.30;99.90;;;;;;5093028;28;20040;-75
2022/01/13 01:05:27;;;;;;;44.10;16.80;;;5.30;99.90;;;;;;5094341;28;20137;-75
2022/01/13 01:07:52;;;;;;;50.55;16.02;;;5.30;99.90;;;;;;5093015;28;20060;-76
2022/01/13 01:10:19;;;;;;;51.87;16.67;;;5.30;99.90;;;;;;5093187;28;20052;-75
2022/01/13 01:12:45;;;;;;;47.10;16.20;;;5.20;99.90;;;;;;5094579;28;20050;-75
2022/01/13 01:15:12;;;;;;;43.47;16.53;;;5.30;99.90;;;;;;5092810;28;20040;-75
2022/01/13 01:17:44;;;;;;;53.00;17.27;;;5.30;99.90;;;;;;5075868;28;20056;-75
2022/01/13 01:20:10;;;;;;;45.42;17.85;;;5.30;99.90;;;;;;5092949;28;20054;-75
2022/01/13 01:23:03;;;;;;;50.47;18.38;;;5.30;99.90;;;;;;5092799;28;20089;-75
2022/01/13 01:27:57;;;;;;;49.40;18.15;;;5.30;99.90;;;;;;5093627;28;20408;-81
2022/01/13 01:30:42;;;;;;;51.70;19.38;;;5.30;99.90;;;;;;5075066;28;20052;-75
2022/01/13 01:33:13;;;;;;;52.72;19.52;;;5.40;99.90;;;;;;5093543;28;20040;-75
2022/01/13 01:35:39;;;;;;;41.80;18.80;;;5.40;99.90;;;;;;5093048;28;20091;-75
2022/01/13 01:38:05;;;;;;;44.80;17.87;;;5.40;99.90;;;;;;5092308;28;20087;-75
2022/01/13 01:40:30;;;;;;;44.47;18.23;;;5.40;99.90;;;;;;5093983;28;20048;-75
2022/01/13 01:42:56;;;;;;;50.83;18.50;;;5.40;99.90;;;;;;5075509;28;20408;-81
2022/01/13 01:45:25;;;;;;;55.10;18.60;;;5.40;99.90;;;;;;5093694;28;20047;-75
2022/01/13 01:47:52;;;;;;;53.25;18.88;;;5.40;99.90;;;;;;5092685;28;20060;-75
2022/01/13 01:50:21;;;;;;;48.42;17.98;;;5.40;99.90;;;;;;5092995;28;20052;-75
2022/01/13 01:52:49;;;;;;;52.90;18.77;;;5.40;99.90;;;;;;5092697;28;20059;-75
2022/01/13 01:55:16;;;;;;;45.10;17.98;;;5.40;99.90;;;;;;5092258;28;20048;-75
2022/01/13 01:57:44;;;;;;;49.33;17.42;;;5.40;99.90;;;;;;5093567;28;20087;-75
2022/01/13 02:00:14;;;;;;;53.63;18.38;;;5.40;99.90;;;;;;5093208;28;20056;-75
2022/01/13 02:02:41;;;;;;;57.78;18.40;;;5.50;99.90;;;;;;5093594;28;20046;-75
2022/01/13 02:05:08;;;;;;;45.25;17.17;;;5.40;99.90;;;;;;5092133;28;20051;-75
2022/01/13 02:07:33;;;;;;;46.70;16.23;;;5.40;99.90;;;;;;5093308;28;20523;-75
2022/01/13 02:10:00;;;;;;;46.03;17.67;;;5.40;99.90;;;;;;5092291;28;20126;-80
2022/01/13 02:12:33;;;;;;;39.13;15.65;;;5.40;99.90;;;;;;5075431;28;20136;-75
2022/01/13 02:17:40;;;;;;;44.92;16.13;;;5.40;99.90;;;;;;5093553;28;20056;-75
2022/01/13 02:20:08;;;;;;;39.50;14.90;;;5.40;99.90;;;;;;5091899;28;20058;-75
2022/01/13 02:22:34;;;;;;;47.00;15.02;;;5.40;99.90;;;;;;5093033;28;20082;-75
2022/01/13 02:25:01;;;;;;;47.93;15.67;;;5.40;99.90;;;;;;5093146;28;20083;-75
2022/01/13 02:27:26;;;;;;;44.67;14.90;;;5.40;99.90;;;;;;5091715;28;20322;-75
2022/01/13 02:29:52;;;;;;;54.77;15.70;;;5.30;99.90;;;;;;5092973;28;20531;-75
2022/01/13 02:32:19;;;;;;;53.93;15.67;;;5.30;99.90;;;;;;5092784;28;20044;-75
2022/01/13 02:34:45;;;;;;;57.35;16.30;;;5.30;99.90;;;;;;5093018;28;20177;-75
2022/01/13 02:37:11;;;;;;;58.87;15.37;;;5.30;99.90;;;;;;5092749;28;20508;-75
2022/01/13 02:39:37;;;;;;;58.53;16.55;;;5.30;99.90;;;;;;5092955;28;20044;-75
2022/01/13 02:42:12;;;;;;;84.82;17.95;;;5.30;99.90;;;;;;5094729;28;20052;-75
2022/01/13 02:45:19;;;;;;;52.97;15.82;;;5.30;99.90;;;;;;5097076;28;20552;-75
2022/01/13 02:47:59;;;;;;;59.88;16.05;;;5.30;99.90;;;;;;5079429;28;20055;-75
2022/01/13 02:50:22;;;;;;;82.43;16.38;;;5.30;99.90;;;;;;5096290;28;20044;-75
2022/01/13 02:52:48;;;;;;;93.33;17.60;;;5.30;99.90;;;;;;5095930;28;20513;-75
2022/01/13 02:55:14;;;;;;;56.43;16.50;;;5.30;99.90;;;;;;5095452;28;20104;-75
2022/01/13 02:57:39;;;;;;;79.30;17.23;;;5.30;99.90;;;;;;5095687;28;20044;-75
2022/01/13 03:00:07;;;;;;;79.20;19.00;;;5.30;99.90;;;;;;5095637;28;20056;-75
2022/01/13 03:02:33;;;;;;;85.07;17.63;;;5.40;99.90;;;;;;5096733;28;20127;-75
2022/01/13 03:05:00;;;;;;;75.68;18.10;;;5.40;99.90;;;;;;5096783;28;20399;-75
2022/01/13 03:07:26;;;;;;;61.50;15.50;;;5.40;99.90;;;;;;5096454;28;20048;-75
2022/01/13 03:09:52;;;;;;;67.97;16.42;;;5.40;99.90;;;;;;5096608;28;20047;-74
2022/01/13 03:12:18;;;;;;;67.20;16.05;;;5.40;99.90;;;;;;5095171;28;20118;-75
2022/01/13 03:14:44;;;;;;;102.25;17.92;;;5.40;99.90;;;;;;5095806;28;20105;-74
2022/01/13 03:17:10;;;;;;;54.83;16.23;;;5.40;99.90;;;;;;5096009;28;20052;-75
2022/01/13 03:19:35;;;;;;;69.60;16.17;;;5.40;99.90;;;;;;5096689;28;20051;-75
2022/01/13 03:22:02;;;;;;;71.13;17.57;;;5.40;99.90;;;;;;5095396;28;20093;-75
2022/01/13 03:24:30;;;;;;;52.35;15.52;;;5.40;99.90;;;;;;5095944;28;20097;-75
2022/01/13 03:26:56;;;;;;;62.22;16.95;;;5.50;99.90;;;;;;5095221;28;20051;-75
2022/01/13 03:29:24;;;;;;;71.85;16.38;;;5.40;99.90;;;;;;5094659;28;20079;-74
2022/01/13 03:31:49;;;;;;;86.40;18.45;;;5.50;99.90;;;;;;5095308;28;20048;-75
2022/01/13 03:34:16;;;;;;;60.13;16.07;;;5.50;99.90;;;;;;5094718;28;20085;-75
2022/01/13 03:36:44;;;;;;;47.20;13.98;;;5.50;99.90;;;;;;5095142;28;20120;-75
2022/01/13 03:39:12;;;;;;;54.42;15.45;;;5.50;99.90;;;;;;5096026;28;20127;-75
2022/01/13 03:41:38;;;;;;;48.22;15.07;;;5.50;99.90;;;;;;5096043;28;20056;-75
2022/01/13 03:44:07;;;;;;;70.22;17.00;;;5.50;99.90;;;;;;5094852;28;20174;-75
2022/01/13 03:46:37;;;;;;;77.97;17.95;;;5.50;99.90;;;;;;5095754;28;20420;-75
2022/01/13 03:49:07;;;;;;;65.35;15.93;;;5.50;99.90;;;;;;5095926;28;20105;-75
2022/01/13 03:52:14;;;;;;;83.15;16.38;;;5.50;99.90;;;;;;5095858;28;20044;-75
2022/01/13 03:54:40;;;;;;;67.23;16.10;;;5.50;99.90;;;;;;5094770;28;20043;-74
2022/01/13 03:57:09;;;;;;;51.20;15.05;;;5.50;99.90;;;;;;5095506;28;20499;-75
2022/01/13 04:00:02;;;;;;;93.90;18.27;;;5.50;99.90;;;;;;5095065;28;20130;-75
2022/01/13 04:02:27;;;;;;;95.68;16.98;;;5.50;99.90;;;;;;5095315;28;20097;-75
2022/01/13 04:04:53;;;;;;;80.37;17.17;;;5.50;99.90;;;;;;5094397;28;20047;-75
2022/01/13 04:07:24;;;;;;;87.17;17.87;;;5.50;99.90;;;;;;5095029;28;20074;-75
2022/01/13 04:09:50;;;;;;;97.70;19.73;;;5.50;99.90;;;;;;5095566;28;20051;-75
2022/01/13 04:12:19;;;;;;;83.83;18.17;;;5.50;99.90;;;;;;5095190;28;20059;-78
2022/01/13 04:14:48;;;;;;;87.03;17.95;;;5.50;99.90;;;;;;5111547;28;20290;-75
2022/01/13 04:17:19;;;;;;;89.93;19.33;;;5.60;99.90;;;;;;5095671;28;20048;-75
2022/01/13 04:19:46;;;;;;;89.95;18.30;;;5.50;99.90;;;;;;5094417;28;20093;-75
2022/01/13 04:22:12;;;;;;;124.65;21.00;;;5.60;99.90;;;;;;5094000;28;20058;-75
2022/01/13 04:24:42;;;;;;;95.03;19.90;;;5.50;99.90;;;;;;5093573;28;20044;-75
2022/01/13 04:27:09;;;;;;;93.95;18.92;;;5.60;99.90;;;;;;5095088;28;20117;-75
2022/01/13 04:29:37;;;;;;;76.85;18.80;;;5.60;99.90;;;;;;5094878;28;20048;-75
2022/01/13 04:32:04;;;;;;;69.90;17.38;;;5.60;99.90;;;;;;5094083;28;20044;-75
2022/01/13 04:34:31;;;;;;;81.50;18.60;;;5.50;99.90;;;;;;5093548;28;20048;-75
2022/01/13 04:37:00;;;;;;;71.38;17.83;;;5.60;99.90;;;;;;5095189;28;20106;-75
2022/01/13 04:39:27;;;;;;;100.53;19.02;;;5.60;99.90;;;;;;5093590;28;20040;-75
2022/01/13 04:41:53;;;;;;;75.72;19.10;;;5.60;99.90;;;;;;5093684;28;20044;-75
2022/01/13 04:44:21;;;;;;;102.37;20.57;;;5.60;99.90;;;;;;5093193;28;20468;-79
2022/01/13 04:46:50;;;;;;;137.13;23.52;;;5.60;99.90;;;;;;5094782;28;20290;-75
2022/01/13 04:49:18;;;;;;;91.47;20.70;;;5.60;99.90;;;;;;5093937;28;20438;-75
2022/01/13 04:51:45;;;;;;;95.53;20.30;;;5.60;99.90;;;;;;5093500;28;20044;-75
2022/01/13 04:54:12;;;;;;;125.80;24.00;;;5.60;99.90;;;;;;5093392;28;20069;-75
2022/01/13 04:56:42;;;;;;;103.22;21.90;;;5.60;99.90;;;;;;5093328;28;20052;-75
2022/01/13 04:59:08;;;;;;;95.68;23.27;;;5.60;99.90;;;;;;5077120;28;20149;-75
2022/01/13 05:01:35;;;;;;;87.75;22.02;;;5.60;99.90;;;;;;5094167;28;20036;-75
2022/01/13 05:04:01;;;;;;;131.18;22.25;;;5.60;99.90;;;;;;5094262;28;20098;-75
2022/01/13 05:06:27;;;;;;;104.18;24.08;;;5.70;99.90;;;;;;5092997;28;20454;-75
2022/01/13 05:08:52;;;;;;;82.07;20.97;;;5.70;99.90;;;;;;5094362;28;20130;-75
2022/01/13 05:11:19;;;;;;;116.33;23.50;;;5.70;99.90;;;;;;5093327;28;20040;-75
2022/01/13 05:13:45;;;;;;;104.22;21.95;;;5.70;99.90;;;;;;5093709;28;20039;-75
2022/01/13 05:16:25;;;;;;;106.35;23.15;;;5.70;99.90;;;;;;5093282;28;20051;-75
2022/01/13 05:19:12;;;;;;;93.80;20.90;;;;;;;;;;5094305;28;20044;-74
2022/01/13 05:22:05;;;;;;;107.60;23.02;;;;;;;;;;5092898;28;20094;-75
2022/01/13 05:24:24;;;;;;;84.95;21.23;;;;;;;;;;5092511;28;20062;-80
2022/01/13 05:26:51;;;;;;;100.78;23.45;;;;;;;;;;5093043;28;20040;-74
2022/01/13 05:29:20;;;;;;;127.18;25.02;;;;;;;;;;5094005;28;20121;-74
2022/01/13 05:31:46;;;;;;;130.63;25.27;;;;;;;;;;5092632;28;20040;-74
2022/01/13 05:34:12;;;;;;;128.15;25.10;;;;;;;;;;5075961;28;20294;-74
2022/01/13 05:36:38;;;;;;;112.57;24.30;;;;;;;;;;5093552;28;20079;-74
2022/01/13 05:39:04;;;;;;;86.43;22.23;;;;;;;;;;5093629;28;20564;-74
2022/01/13 05:41:31;;;;;;;116.88;24.75;;;;;;;;;;5093501;28;20145;-74
2022/01/13 05:43:57;;;;;;;102.13;23.42;;;;;;;;;;5075997;28;20488;-74
2022/01/13 05:46:24;;;;;;;126.37;26.80;;;;;;;;;;5075850;28;20130;-74
2022/01/13 05:48:50;;;;;;;155.23;27.27;;;;;;;;;;5093315;28;20329;-74
2022/01/13 05:51:16;;;;;;;105.63;25.85;;;;;;;;;;5093585;28;20044;-74
2022/01/13 05:53:45;;;;;;;140.23;28.77;;;;;;;;;;5093240;28;20051;-74
2022/01/13 05:56:12;;;;;;;125.67;25.00;;;;;;;;;;5075363;28;20434;-74
2022/01/13 05:58:38;;;;;;;130.23;25.20;;;;;;;;;;5092001;28;20278;-74
2022/01/13 06:01:04;;;;;;;113.88;25.35;;;;;;;;;;5092512;28;20495;-74
2022/01/13 06:03:30;;;;;;;123.18;26.90;;;;;;;;;;5092089;28;20044;-75
2022/01/13 06:05:57;;;;;;;129.68;29.30;;;;;;;;;;5093359;28;20059;-74
2022/01/13 06:08:23;;;;;;;134.23;29.77;;;;;;;;;;5075189;28;20044;-74
2022/01/13 06:10:49;;;;;;;172.40;32.50;;;;;;;;;;5091814;28;20235;-74
2022/01/13 06:13:15;;;;;;;129.63;29.20;;;;;;;;;;5093265;28;20059;-74
2022/01/13 06:15:42;;;;;;;153.25;30.05;;;;;;;;;;5091234;28;20055;-74
2022/01/13 06:18:12;;;;;;;178.35;34.30;;;;;;;;;;5093156;28;20044;-74
2022/01/13 06:20:39;;;;;;;161.27;32.10;;;;;;;;;;5092938;28;20411;-74
2022/01/13 06:23:06;;;;;;;142.07;31.98;;;;;;;;;;5093309;28;20047;-74
2022/01/13 06:25:32;;;;;;;185.10;35.80;;;;;;;;;;5074879;28;20044;-80
2022/01/13 06:27:58;;;;;;;137.18;31.63;;;;;;;;;;5092859;28;20064;-74
2022/01/13 06:30:24;;;;;;;146.43;31.70;;;;;;;;;;5092977;28;20052;-74
2022/01/13 06:32:50;;;;;;;162.20;32.67;;;;;;;;;;5074955;28;20372;-74
2022/01/13 06:35:17;;;;;;;145.60;30.37;;;;;;;;;;5075113;28;20136;-74
2022/01/13 06:37:43;;;;;;;159.90;33.30;;;;;;;;;;5074661;28;20290;-74
2022/01/13 06:40:11;;;;;;;144.75;32.55;;;;;;;;;;5092070;28;20376;-74
2022/01/13 06:42:38;;;;;;;179.20;34.50;;;;;;;;;;5091632;28;20105;-75
2022/01/13 06:45:04;;;;;;;153.13;33.80;;;;;;;;;;5092939;28;20332;-74
2022/01/13 06:47:30;;;;;;;162.50;32.70;;;;;;;;;;5091748;28;20168;-74
2022/01/13 06:49:57;;;;;;;165.27;34.63;;;;;;;;;;5092585;28;20441;-74
2022/01/13 06:52:23;;;;;;;145.52;31.00;;;;;;;;;;5091824;28;20288;-74
2022/01/13 06:54:49;;;;;;;134.77;31.83;;;;;;;;;;5092618;28;20059;-74
2022/01/13 06:57:16;;;;;;;123.65;30.35;;;;;;;;;;5091803;28;20051;-74
2022/01/13 06:59:42;;;;;;;128.68;33.45;;;;;;;;;;5092586;28;20067;-74
2022/01/13 07:02:08;;;;;;;141.83;31.87;;;;;;;;;;5092745;28;20130;-74
2022/01/13 07:04:34;;;;;;;130.80;31.53;;;;;;;;;;5091407;28;20302;-73
2022/01/13 07:07:00;;;;;;;139.27;33.05;;;;;;;;;;5092372;28;20293;-74
2022/01/13 07:09:27;;;;;;;136.03;31.57;;;;;;;;;;5092928;28;20400;-74
2022/01/13 07:11:53;;;;;;;117.30;28.87;;;;;;;;;;5092311;28;20391;-74
2022/01/13 07:14:19;;;;;;;122.00;30.73;;;;;;;;;;5092567;28;20277;-74
2022/01/13 07:16:45;;;;;;;126.57;32.13;;;;;;;;;;5092315;28;20078;-74
2022/01/13 07:19:12;;;;;;;131.80;33.03;;;;;;;;;;5092530;28;20282;-74
2022/01/13 07:21:42;;;;;;;126.88;32.47;;;;;;;;;;5091434;28;20434;-79
2022/01/13 07:24:08;;;;;;;110.00;28.93;;;;;;;;;;5092441;28;20393;-74
2022/01/13 07:26:34;;;;;;;126.03;31.90;;;;;;;;;;5092463;28;20286;-74
2022/01/13 07:29:01;;;;;;;131.40;30.92;;;;;;;;;;5093150;28;20052;-74
2022/01/13 07:31:28;;;;;;;136.98;33.85;;;;;;;;;;5096228;28;20403;-74
2022/01/13 07:33:54;;;;;;;126.65;31.98;;;;;;;;;;5095875;28;20040;-74
2022/01/13 07:36:20;;;;;;;125.83;31.47;;;;;;;;;;5094881;28;20063;-74
2022/01/13 07:38:47;;;;;;;127.38;29.63;;;;;;;;;;5095837;28;20385;-74
2022/01/13 07:41:13;;;;;;;121.23;29.67;;;;;;;;;;5095235;28;20048;-74
2022/01/13 07:43:42;;;;;;;114.23;30.03;;;;;;;;;;5094888;28;20634;-74
2022/01/13 07:46:09;;;;;;;135.25;31.35;;;;;;;;;;5095969;28;20278;-74
2022/01/13 07:48:35;;;;;;;118.45;28.38;;;;;;;;;;5095987;28;20055;-74
2022/01/13 07:51:01;;;;;;;126.73;33.07;;;;;;;;;;5094417;28;20458;-74
2022/01/13 07:53:28;;;;;;;95.50;28.30;;;;;;;;;;5095088;28;20293;-74
2022/01/13 07:55:54;;;;;;;111.65;28.05;;;;;;;;;;5077613;28;20817;-74
2022/01/13 07:58:20;;;;;;;128.13;30.07;;;;;;;;;;5094855;28;20127;-74
2022/01/13 08:00:46;;;;;;;92.32;26.45;;;;;;;;;;5095558;28;20298;-74
2022/01/13 08:03:12;;;;;;;117.50;29.93;;;;;;;;;;5094363;28;20544;-74
2022/01/13 08:05:38;;;;;;;100.90;27.33;;;;;;;;;;5095787;28;20290;-74
2022/01/13 08:08:05;;;;;;;115.30;27.73;;;;;;;;;;5094021;28;20796;-74
2022/01/13 08:10:31;;;;;;;119.65;27.38;;;;;;;;;;5094413;28;20086;-74
2022/01/13 08:12:57;;;;;;;117.10;27.47;;;;;;;;;;5094016;28;20040;-74
2022/01/13 08:15:23;;;;;;;116.67;26.93;;;;;;;;;;5128682;27;20373;-74
2022/01/13 08:20:35;;;;;;;101.95;24.88;;;;;;;;;;5095200;28;20519;-74
2022/01/13 08:23:01;;;;;;;91.50;25.20;;;;;;;;;;5095048;28;20127;-76
2022/01/13 08:25:28;;;;;;;99.88;26.05;;;;;;;;;;5094528;28;20310;-74
2022/01/13 08:27:54;;;;;;;84.20;25.98;;;;;;;;;;5094796;28;20063;-74
2022/01/13 08:30:20;;;;;;;104.10;25.88;;;;;;;;;;5095219;28;20130;-74
2022/01/13 08:32:47;;;;;;;103.07;25.43;;;;;;;;;;5095060;28;20132;-79
2022/01/13 08:35:13;;;;;;;100.47;26.73;;;;;;;;;;5095065;28;20285;-72
2022/01/13 08:37:39;;;;;;;106.60;27.92;;;;;;;;;;5094982;28;20773;-73
2022/01/13 08:40:06;;;;;;;89.25;26.70;;;;;;;;;;5094235;28;20492;-73
2022/01/13 08:42:33;;;;;;;116.78;29.67;;;;;;;;;;5094798;28;20052;-73
2022/01/13 08:45:00;;;;;;;118.77;28.60;;;;;;;;;;5093396;28;20052;-73
2022/01/13 08:47:26;;;;;;;117.30;29.97;;;;;;;;;;5094945;28;20670;-73
2022/01/13 08:49:52;;;;;;;89.97;26.58;;;;;;;;;;5094489;28;20288;-73
2022/01/13 08:52:18;;;;;;;106.53;29.83;;;;;;;;;;5094753;28;20082;-73
2022/01/13 08:54:46;;;;;;;88.00;26.48;;;;;;;;;;5094618;28;20278;-73
2022/01/13 08:57:13;;;;;;;116.67;29.87;;;;;;;;;;5093130;28;20048;-73
2022/01/13 08:59:39;;;;;;;105.27;27.87;;;;;;;;;;5094554;28;20321;-73
2022/01/13 09:02:05;;;;;;;110.00;29.23;;;;;;;;;;5094145;28;20339;-73
2022/01/13 09:04:32;;;;;;;124.03;31.87;;;;;;;;;;5094319;28;20090;-72
2022/01/13 09:06:58;;;;;;;97.90;31.05;;;;;;;;;;5094149;28;20622;-73
2022/01/13 09:09:24;;;;;;;106.75;32.10;;;;;;;;;;5076442;28;20044;-72
2022/01/13 09:11:50;;;;;;;107.33;32.50;;;;;;;;;;5093091;28;20537;-73
2022/01/13 09:14:21;;;;;;;104.50;30.67;;;;;;;;;;5093974;28;20278;-72
2022/01/13 09:16:48;;;;;;;99.68;30.73;;;;;;;;;;5094424;28;20282;-72
2022/01/13 09:19:17;;;;;;;107.80;32.23;;;;;;;;;;5094182;28;20054;-73
2022/01/13 09:21:44;;;;;;;112.90;33.33;;;;;;;;;;5094197;28;20364;-73
2022/01/13 09:24:14;;;;;;;94.80;32.65;;;;;;;;;;5093735;28;20298;-73
2022/01/13 09:26:41;;;;;;;87.37;30.33;;;;;;;;;;5094339;28;20126;-73
2022/01/13 09:29:07;;;;;;;115.77;35.30;;;;;;;;;;5092201;28;20302;-73
2022/01/13 09:31:35;;;;;;;108.07;32.37;;;;;;;;;;5094092;28;20340;-73
2022/01/13 09:34:02;;;;;;;106.40;33.07;;;;;;;;;;5093883;28;20370;-72
2022/01/13 09:36:30;;;;;;;105.10;32.63;;;;;;;;;;5094008;28;20367;-72
2022/01/13 09:38:56;;;;;;;102.10;34.78;;;;;;;;;;5093842;28;20364;-73
2022/01/13 09:41:24;;;;;;;98.97;34.90;;;;;;;;;;5092781;28;20059;-73
2022/01/13 09:43:51;;;;;;;107.68;34.30;;;;;;;;;;5093751;28;20893;-72
2022/01/13 09:46:17;;;;;;;101.60;32.50;;;;;;;;;;5093454;28;20100;-73
2022/01/13 09:48:45;;;;;;;105.07;34.70;;;;;;;;;;5093829;28;20671;-72
2022/01/13 09:51:11;;;;;;;115.80;35.57;;;;;;;;;;5091586;28;20293;-72
2022/01/13 09:53:37;;;;;;;116.07;36.13;;;;;;;;;;5093754;28;20285;-76
2022/01/13 09:56:04;;;;;;;104.60;35.73;;;;;;;;;;5093285;28;20642;-74
2022/01/13 09:58:31;;;;;;;102.83;36.30;;;;;;;;;;5093631;28;20332;-77
2022/01/13 10:00:57;;;;;;;107.07;35.77;;;;;;;;;;5093697;28;20364;-77
2022/01/13 10:03:27;;;;;;;103.17;37.83;;;;;;;;;;5093499;28;20358;-77
2022/01/13 10:05:58;;;;;;;103.03;37.40;;;;;;;;;;5093613;28;20285;-76
2022/01/13 10:08:40;;;;;;;90.80;35.53;;;;;;;;;;5093303;28;20278;-77
2022/01/13 10:11:24;;;;;;;89.17;36.67;;;;;;;;;;5092099;28;20340;-75
2022/01/13 10:14:02;;;;;;;90.63;35.93;;;;;;;;;;5092434;28;20330;-77
2022/01/13 10:16:29;;;;;;;86.13;35.50;;;;;;;;;;5093146;28;20290;-78
2022/01/13 10:18:55;;;;;;;85.37;36.23;;;;;;;;;;5075400;28;20286;-71
2022/01/13 10:21:21;;;;;;;91.67;35.40;;;;;;;;;;5092842;28;20285;-73
2022/01/13 10:24:09;;;;;;;86.03;37.00;;;;;;;;;;5091891;28;20409;-73
2022/01/13 10:26:36;;;;;;;79.47;35.43;;;;;;;;;;5093173;28;20282;-78
2022/01/13 10:29:02;;;;;;;73.60;34.67;;;;;;;;;;5074526;28;20302;-80
2022/01/13 10:31:45;;;;;;;80.10;34.63;;;;;;;;;;5092947;28;20319;-78
2022/01/13 10:34:22;;;;;;;79.57;36.37;;;;;;;;;;5091492;28;20822;-78
2022/01/13 10:37:11;;;;;;;70.63;33.67;;;;;;;;;;5093219;28;20282;-78
2022/01/13 10:39:51;;;;;;;71.20;33.07;;;;;;;;;;5075553;28;20298;-78
2022/01/13 10:45:17;;;;;;;65.37;30.80;;;;;;;;;;5092179;28;20388;-78
2022/01/13 10:47:50;;;;;;;66.40;32.03;;;;;;;;;;5091773;28;20761;-78
2022/01/13 10:50:16;;;;;;;76.60;34.40;;;;;;;;;;5074608;28;20789;-72
2022/01/13 10:52:42;;;;;;;66.53;30.10;;;;;;;;;;5092144;28;20298;-72
2022/01/13 10:55:16;;;;;;;66.67;31.97;;;;;;;;;;5092290;28;20419;-72
2022/01/13 10:57:43;;;;;;;72.03;34.07;;;;;;;;;;5092848;28;20364;-74
2022/01/13 11:00:12;;;;;;;63.80;33.53;;;;;;;;;;5091336;28;20319;-72
2022/01/13 11:02:38;;;;;;;70.70;33.13;;;;;;;;;;5094685;28;20298;-72
2022/01/13 11:05:04;;;;;;;67.87;32.43;;;;;;;;;;5096817;28;20369;-72
2022/01/13 11:07:31;;;;;;;69.17;32.63;;;;;;;;;;5096473;28;20314;-71
2022/01/13 11:10:03;;;;;;;63.63;30.63;;;;;;;;;;5096815;28;20301;-72
2022/01/13 11:12:38;;;;;;;62.83;31.37;;;;;;;;;;5096394;28;20274;-72
2022/01/13 11:15:06;;;;;;;63.03;30.83;;;;;;;;;;5096783;28;20289;-72
2022/01/13 11:17:34;;;;;;;64.07;31.87;;;;;;;;;;5096493;28;20130;-75
2022/01/13 11:20:00;;;;;;;55.47;30.50;;;;;;;;;;5096160;28;20765;-71
2022/01/13 11:22:28;;;;;;;61.60;30.00;;;;;;;;;;5096014;28;20282;-73
2022/01/13 11:24:55;;;;;;;59.77;29.93;;;;;;;;;;5095104;28;20309;-72
2022/01/13 11:27:22;;;;;;;66.47;29.93;;;;;;;;;;5096044;28;20274;-72
2022/01/13 11:29:49;;;;;;;55.83;29.90;;;;;;;;;;5095722;28;20290;-72
2022/01/13 11:32:16;;;;;;;57.37;30.43;;;;;;;;;;5095957;28;20679;-71
2022/01/13 11:34:42;;;;;;;57.43;29.33;;;;;;;;;;5096500;28;20327;-72
2022/01/13 11:37:08;;;;;;;47.20;27.47;;;;;;;;;;5096224;28;20361;-74
2022/01/13 11:39:39;;;;;;;51.27;30.23;;;;;;;;;;5096473;28;20282;-74
2022/01/13 11:42:07;;;;;;;56.13;28.93;;;;;;;;;;5096057;28;20335;-75
2022/01/13 11:44:33;;;;;;;52.63;28.67;;;;;;;;;;5095710;28;20777;-75
2022/01/13 11:47:00;;;;;;;56.93;29.00;;;;;;;;;;5095908;28;20289;-73
2022/01/13 11:50:17;;;;;;;55.80;29.67;;;;;;;;;;5094596;28;20626;-73
2022/01/13 11:52:31;;;;;;;64.47;29.47;;;;;;;;;;5089477;28;20297;-73
2022/01/13 11:54:57;;;;;;;50.27;28.77;;;;;;;;;;5095711;28;20270;-73
2022/01/13 11:57:28;;;;;;;50.90;28.47;;;;;;;;;;5095367;28;20278;-73
2022/01/13 12:00:00;;;;;;;57.73;28.47;;;;;;;;;;5095882;28;20293;-72
2022/01/13 12:02:30;;;;;;;55.57;29.30;;;;;;;;;;5095373;28;20286;-73
2022/01/13 12:05:05;;;;;;;58.87;28.73;;;;;;;;;;5094454;28;20342;-72
2022/01/13 12:07:38;;;;;;;51.10;27.50;;;;;;;;;;5095309;28;20399;-74
2022/01/13 12:10:05;;;;;;;61.83;29.77;;;;;;;;;;5095730;28;20288;-74
2022/01/13 12:12:33;;;;;;;61.63;29.80;;;;;;;;;;5095253;28;20694;-75
2022/01/13 12:15:18;;;;;;;59.03;30.43;;;;;;;;;;5094695;28;20285;-72
2022/01/13 12:17:46;;;;;;;54.13;29.27;;;;;;;;;;5095490;28;20282;-75
2022/01/13 12:20:29;;;;;;;56.30;27.53;;;;;;;;;;5095432;28;20105;-74
2022/01/13 12:23:03;;;;;;;51.83;26.83;;;;;;;;;;5095259;28;20302;-74
2022/01/13 12:25:33;;;;;;;52.33;28.47;;;;;;;;;;5094039;28;20677;-74
2022/01/13 12:28:11;;;;;;;48.83;26.23;;;;;;;;;;5093834;28;20369;-74
2022/01/13 12:30:37;;;;;;;48.03;26.30;;;;;;;;;;5094870;28;20333;-74
2022/01/13 12:33:06;;;;;;;47.20;24.40;;;;;;;;;;5095313;28;20286;-74
2022/01/13 12:35:38;;;;;;;48.23;25.93;;;;;;;;;;5094846;28;20331;-74
2022/01/13 12:38:05;;;;;;;55.20;25.53;;;;;;;;;;5094183;28;20717;-74
2022/01/13 12:40:40;;;;;;;45.60;24.90;;;;;;;;;;5093731;28;20642;-74
2022/01/13 12:46:15;;;;;;;36.13;23.70;;;;;;;;;;5072979;28;20052;-73
2022/01/13 12:48:46;;;;;;;38.17;21.93;;;;;;;;;;5094375;28;20290;-74
2022/01/13 12:51:13;;;;;;;44.00;23.67;;;;;;;;;;5093778;28;20298;-75
2022/01/13 12:53:39;;;;;;;43.63;22.70;;;;;;;;;;5094560;28;21058;-79
2022/01/13 12:56:05;;;;;;;45.60;23.57;;;;;;;;;;5094718;28;20282;-73
2022/01/13 12:58:33;;;;;;;45.57;22.37;;;;;;;;;;5094331;28;20669;-73
2022/01/13 13:01:11;;;;;;;40.70;22.23;;;;;;;;;;5094525;28;20293;-72
2022/01/13 13:03:37;;;;;;;38.27;22.30;;;;;;;;;;5094110;28;20355;-73
2022/01/13 13:06:11;;;;;;;47.70;23.77;;;;;;;;;;5094486;28;20278;-73
2022/01/13 13:08:37;;;;;;;38.07;20.40;;;;;;;;;;5094109;28;20283;-73
2022/01/13 13:11:05;;;;;;;45.90;23.93;;;;;;;;;;5094464;28;20278;-72
2022/01/13 13:13:34;;;;;;;40.10;21.70;;;;;;;;;;5094090;28;20314;-73
2022/01/13 13:16:01;;;;;;;41.23;21.33;;;;;;;;;;5093292;28;20322;-73
2022/01/13 13:18:29;;;;;;;41.40;21.87;;;;;;;;;;5093916;28;20282;-73
2022/01/13 13:20:56;;;;;;;35.83;19.00;;;;;;;;;;5094203;28;20315;-73
2022/01/13 13:23:29;;;;;;;44.40;20.80;;;;;;;;;;5094151;28;20309;-73
2022/01/13 13:25:56;;;;;;;42.90;19.97;;;;;;;;;;5093230;28;20602;-72
2022/01/13 13:28:23;;;;;;;38.90;20.33;;;;;;;;;;5092855;28;20773;-74
2022/01/13 13:30:54;;;;;;;42.33;21.90;;;;;;;;;;5093903;28;20288;-73
2022/01/13 13:33:29;;;;;;;38.07;19.17;;;;;;;;;;5094414;28;20331;-73
2022/01/13 13:36:06;;;;;;;36.92;18.65;;;;;;;;;;5094059;28;20266;-73
2022/01/13 13:38:32;;;;;;;43.63;18.93;;;;;;;;;;5093571;28;20135;-74
2022/01/13 13:40:58;;;;;;;33.90;17.73;;;;;;;;;;5093828;28;20288;-72
2022/01/13 13:43:30;;;;;;;38.20;19.60;;;;;;;;;;5093718;28;20380;-73
2022/01/13 13:46:03;;;;;;;38.67;21.00;;;;;;;;;;5092961;28;20290;-73
2022/01/13 13:48:30;;;;;;;38.50;19.47;;;;;;;;;;5075267;28;20831;-74
2022/01/13 13:50:57;;;;;;;38.37;18.87;;;;;;;;;;5092979;28;20773;-74
2022/01/13 13:53:23;;;;;;;37.90;18.60;;;;;;;;;;5093590;28;20278;-73
2022/01/13 13:56:00;;;;;;;37.57;19.90;;;;;;;;;;5091803;28;20379;-72
2022/01/13 13:58:27;;;;;;;34.87;19.03;;;;;;;;;;5072374;28;20287;-73
2022/01/13 14:00:58;;;;;;;45.53;20.60;;;;;;;;;;5073172;28;20365;-72